createdAt,value
2023-05-20T00:00:33.965Z,30.92
2023-05-20T00:03:04.540Z,31.31
2023-05-20T00:05:34.998Z,30.32
2023-05-20T00:08:08.877Z,31.22
2023-05-20T00:10:39.683Z,31.23
2023-05-20T00:13:10.182Z,31.37
2023-05-20T00:15:40.848Z,31.15
2023-05-20T00:18:11.404Z,31.18
2023-05-20T00:20:41.857Z,31.35
2023-05-20T00:23:12.504Z,31.30
2023-05-20T00:25:42.867Z,31.39
2023-05-20T00:28:13.267Z,31.17
2023-05-20T00:30:43.992Z,31.27
2023-05-20T00:33:14.764Z,31.02
2023-05-20T00:35:45.262Z,31.02
2023-05-20T00:38:16.002Z,31.14
2023-05-20T00:40:46.464Z,31.02
2023-05-20T00:43:17.222Z,31.33
2023-05-20T00:45:48.780Z,31.31
2023-05-20T00:48:19.315Z,31.19
2023-05-20T00:50:54.107Z,30.93
2023-05-20T00:53:25.386Z,31.30
2023-05-20T00:55:55.871Z,31.00
2023-05-20T00:58:26.298Z,31.31
2023-05-20T01:00:57.256Z,31.54
2023-05-20T01:03:28.897Z,30.91
2023-05-20T01:05:59.411Z,31.24
2023-05-20T01:08:30.312Z,31.61
2023-05-20T01:11:13.393Z,31.45
2023-05-20T01:13:48.880Z,30.89
2023-05-20T01:16:25.061Z,31.72
2023-05-20T01:18:58.954Z,30.14
2023-05-20T01:21:33.847Z,30.46
2023-05-20T01:24:07.330Z,31.51
2023-05-20T01:26:39.914Z,31.74
2023-05-20T01:29:10.398Z,31.31
2023-05-20T01:31:41.708Z,31.83
2023-05-20T01:34:15.164Z,31.81
2023-05-20T01:36:48.606Z,31.70
2023-05-20T01:39:20.346Z,31.56
2023-05-20T01:41:52.026Z,31.63
2023-05-20T01:44:23.114Z,31.87
2023-05-20T01:46:54.114Z,31.52
2023-05-20T01:49:24.507Z,30.75
2023-05-20T01:51:55.000Z,31.12
2023-05-20T01:54:26.034Z,31.70
2023-05-20T01:56:56.509Z,31.19
2023-05-20T01:59:27.089Z,30.65
2023-05-20T02:01:57.624Z,30.48
2023-05-20T02:04:28.877Z,31.14
2023-05-20T02:06:59.291Z,30.94
2023-05-20T02:09:30.417Z,31.84
2023-05-20T02:12:01.051Z,31.68
2023-05-20T02:14:50.788Z,30.97
2023-05-20T02:17:22.642Z,31.02
2023-05-20T02:19:53.181Z,31.14
2023-05-20T02:22:23.634Z,31.18
2023-05-20T02:24:54.499Z,31.51
2023-05-20T02:27:24.884Z,30.73
2023-05-20T02:29:55.407Z,31.81
2023-05-20T02:32:29.663Z,31.20
2023-05-20T02:35:00.193Z,31.05
2023-05-20T02:37:31.387Z,31.53
2023-05-20T02:40:02.043Z,30.99
2023-05-20T02:42:32.804Z,31.59
2023-05-20T02:45:04.127Z,31.85
2023-05-20T02:47:34.615Z,31.63
2023-05-20T02:50:08.614Z,31.49
2023-05-20T02:52:41.489Z,31.40
2023-05-20T02:55:12.458Z,32.10
2023-05-20T02:57:42.727Z,31.11
2023-05-20T03:00:14.832Z,32.00
2023-05-20T03:02:46.117Z,32.18
2023-05-20T03:05:16.769Z,32.04
2023-05-20T03:07:48.024Z,32.74
2023-05-20T03:10:18.775Z,32.37
2023-05-20T03:12:49.168Z,32.37
2023-05-20T03:15:19.664Z,32.50
2023-05-20T03:17:50.068Z,33.00
2023-05-20T03:20:38.545Z,32.75
2023-05-20T03:23:10.642Z,33.28
2023-05-20T03:25:42.514Z,32.89
2023-05-20T03:28:13.430Z,33.28
2023-05-20T03:30:44.071Z,33.03
2023-05-20T03:33:14.876Z,32.46
2023-05-20T03:35:45.334Z,33.07
2023-05-20T03:38:17.071Z,33.30
2023-05-20T03:40:47.692Z,32.85
2023-05-20T03:43:18.376Z,32.35
2023-05-20T03:45:48.678Z,32.97
2023-05-20T03:48:19.122Z,33.57
2023-05-20T03:50:49.689Z,33.02
2023-05-20T03:53:21.779Z,33.11
2023-05-20T03:56:10.516Z,33.95
2023-05-20T03:58:44.835Z,32.91
2023-05-20T04:01:17.560Z,33.47
2023-05-20T04:03:47.648Z,32.58
2023-05-20T04:06:18.234Z,33.04
2023-05-20T04:09:06.688Z,33.67
2023-05-20T04:11:37.446Z,33.61
2023-05-20T04:14:08.405Z,32.66
2023-05-20T04:16:39.296Z,32.79
2023-05-20T04:19:10.447Z,33.67
2023-05-20T04:21:41.267Z,33.49
2023-05-20T04:24:11.935Z,33.55
2023-05-20T04:26:42.526Z,32.76
2023-05-20T04:29:14.478Z,32.97
2023-05-20T04:31:47.218Z,33.34
2023-05-20T04:34:21.130Z,33.63
2023-05-20T04:36:53.605Z,33.06
2023-05-20T04:39:24.373Z,33.26
2023-05-20T04:41:59.183Z,33.69
2023-05-20T04:44:31.489Z,33.46
2023-05-20T04:47:02.285Z,34.28
2023-05-20T04:49:32.678Z,34.19
2023-05-20T04:52:03.129Z,33.67
2023-05-20T04:54:52.692Z,33.17
2023-05-20T04:57:23.173Z,34.00
2023-05-20T05:00:13.948Z,33.78
2023-05-20T05:02:44.779Z,33.06
2023-05-20T05:05:15.263Z,33.55
2023-05-20T05:07:45.800Z,32.72
2023-05-20T05:10:17.441Z,32.83
2023-05-20T05:12:47.912Z,33.52
2023-05-20T05:15:18.940Z,32.59
2023-05-20T05:17:50.415Z,32.52
2023-05-20T05:20:21.449Z,32.73
2023-05-20T05:22:52.375Z,32.33
2023-05-20T05:25:23.123Z,31.96
2023-05-20T05:27:53.599Z,31.61
2023-05-20T05:30:25.929Z,32.28
2023-05-20T05:32:56.615Z,32.00
2023-05-20T05:35:27.490Z,32.06
2023-05-20T05:37:57.934Z,33.07
2023-05-20T05:40:29.174Z,32.34
2023-05-20T05:42:59.780Z,31.88
2023-05-20T05:45:30.527Z,32.44
2023-05-20T05:48:01.792Z,32.62
2023-05-20T05:50:33.137Z,31.32
2023-05-20T05:53:04.219Z,32.12
2023-05-20T05:55:35.628Z,32.47
2023-05-20T05:58:06.506Z,32.78
2023-05-20T06:00:37.216Z,32.75
2023-05-20T06:03:07.952Z,32.37
2023-05-20T06:05:40.422Z,32.32
2023-05-20T06:08:10.908Z,31.63
2023-05-20T06:10:41.540Z,32.37
2023-05-20T06:13:12.039Z,32.26
2023-05-20T06:15:43.016Z,32.03
2023-05-20T06:18:14.404Z,35.00
2023-05-20T06:20:45.172Z,34.48
2023-05-20T06:23:15.570Z,35.46
2023-05-20T06:26:01.260Z,36.01
2023-05-20T06:28:33.039Z,36.66
2023-05-20T06:31:03.588Z,37.32
2023-05-20T06:33:52.133Z,34.99
2023-05-20T06:36:23.568Z,33.90
2023-05-20T06:38:54.195Z,34.42
2023-05-20T06:41:24.751Z,34.90
2023-05-20T06:43:55.368Z,34.95
2023-05-20T06:47:00.677Z,35.72
2023-05-20T06:49:31.470Z,33.72
2023-05-20T06:52:03.382Z,32.91
2023-05-20T06:54:35.730Z,34.59
2023-05-20T06:57:06.666Z,32.81
2023-05-20T06:59:38.217Z,32.78
2023-05-20T07:02:10.487Z,34.26
2023-05-20T07:04:41.407Z,32.11
2023-05-20T07:07:11.846Z,31.35
2023-05-20T07:09:42.697Z,31.42
2023-05-20T07:12:13.458Z,30.73
2023-05-20T07:14:44.570Z,32.95
2023-05-20T07:17:15.558Z,33.54
2023-05-20T07:19:48.023Z,30.28
2023-05-20T07:22:18.840Z,32.12
2023-05-20T07:25:04.831Z,30.68
2023-05-20T07:27:35.451Z,32.45
2023-05-20T07:30:07.010Z,32.56
2023-05-20T07:32:38.854Z,32.46
2023-05-20T07:35:09.804Z,31.66
2023-05-20T07:37:40.525Z,31.88
2023-05-20T07:40:12.366Z,31.13
2023-05-20T07:42:42.835Z,31.94
2023-05-20T07:45:13.517Z,31.34
2023-05-20T07:47:43.990Z,32.59
2023-05-20T07:50:15.444Z,30.64
2023-05-20T07:52:55.952Z,32.18
2023-05-20T07:55:30.188Z,31.41
2023-05-20T07:58:01.246Z,29.08
2023-05-20T08:00:31.792Z,30.29
2023-05-20T08:03:06.611Z,29.81
2023-05-20T08:05:58.813Z,28.00
2023-05-20T08:08:32.060Z,31.85
2023-05-20T08:11:09.278Z,32.26
2023-05-20T08:13:41.372Z,33.84
2023-05-20T08:16:12.587Z,31.02
2023-05-20T08:18:43.206Z,31.66
2023-05-20T08:21:15.596Z,31.63
2023-05-20T08:23:46.106Z,32.22
2023-05-20T08:26:16.580Z,30.64
2023-05-20T08:28:46.998Z,32.61
2023-05-20T08:31:20.120Z,29.84
2023-05-20T08:33:50.714Z,28.81
2023-05-20T08:36:21.461Z,29.36
2023-05-20T08:38:52.810Z,31.32
2023-05-20T08:41:24.259Z,31.74
2023-05-20T08:43:56.572Z,30.84
2023-05-20T08:46:28.781Z,32.45
2023-05-20T08:49:00.903Z,32.00
2023-05-20T08:51:34.750Z,29.42
2023-05-20T08:54:05.570Z,28.17
2023-05-20T08:56:36.057Z,27.98
2023-05-20T08:59:06.964Z,29.12
2023-05-20T09:01:44.640Z,29.88
2023-05-20T09:04:15.271Z,30.31
2023-05-20T09:06:49.072Z,31.16
2023-05-20T09:09:19.513Z,31.70
2023-05-20T09:11:49.788Z,31.77
2023-05-20T09:14:20.179Z,32.08
2023-05-20T09:16:51.156Z,31.90
2023-05-20T09:19:26.449Z,31.75
2023-05-20T09:21:57.721Z,31.65
2023-05-20T09:24:28.740Z,31.59
2023-05-20T09:27:00.214Z,32.40
2023-05-20T09:29:30.665Z,32.98
2023-05-20T09:32:05.080Z,32.37
2023-05-20T09:34:35.547Z,32.34
2023-05-20T09:37:07.551Z,32.14
2023-05-20T09:40:01.145Z,31.18
2023-05-20T09:43:00.816Z,31.86
2023-05-20T09:45:31.718Z,32.01
2023-05-20T09:48:04.454Z,32.15
2023-05-20T09:50:35.410Z,32.56
2023-05-20T09:53:06.970Z,32.35
2023-05-20T09:55:38.229Z,32.45
2023-05-20T09:58:10.120Z,32.79
2023-05-20T10:00:40.558Z,31.91
2023-05-20T10:03:11.122Z,32.22
2023-05-20T10:05:49.242Z,32.53
2023-05-20T10:08:50.275Z,32.52
2023-05-20T10:11:38.696Z,32.12
2023-05-20T10:14:35.196Z,32.42
2023-05-20T10:17:17.799Z,32.27
2023-05-20T10:19:48.372Z,32.23
2023-05-20T10:22:30.638Z,32.01
2023-05-20T10:25:02.251Z,32.17
2023-05-20T10:27:33.027Z,32.59
2023-05-20T10:30:03.325Z,32.28
2023-05-20T10:32:36.162Z,32.22
2023-05-20T10:35:11.558Z,31.67
2023-05-20T10:37:47.497Z,31.55
2023-05-20T10:40:36.410Z,31.71
2023-05-20T10:43:31.383Z,31.98
2023-05-20T10:46:03.236Z,31.87
2023-05-20T10:48:36.096Z,31.96
2023-05-20T10:51:06.607Z,32.46
2023-05-20T10:53:47.228Z,31.99
2023-05-20T10:56:23.139Z,32.21
2023-05-20T10:58:55.636Z,31.67
2023-05-20T11:01:28.731Z,31.87
2023-05-20T11:04:02.427Z,32.42
2023-05-20T11:06:33.215Z,31.80
2023-05-20T11:09:11.640Z,31.95
2023-05-20T11:11:43.222Z,31.91
2023-05-20T11:14:17.960Z,31.89
2023-05-20T11:16:50.074Z,31.85
2023-05-20T11:19:21.294Z,31.93
2023-05-20T11:21:52.981Z,32.35
2023-05-20T11:24:29.109Z,32.36
2023-05-20T11:26:59.809Z,31.95
2023-05-20T11:29:33.659Z,31.65
2023-05-20T11:32:04.360Z,31.54
2023-05-20T11:34:39.451Z,31.99
2023-05-20T11:39:48.971Z,31.92
2023-05-20T11:42:38.591Z,31.78
2023-05-20T11:45:15.304Z,32.08
2023-05-20T11:47:45.922Z,31.27
2023-05-20T11:50:25.182Z,31.70
2023-05-20T11:53:01.537Z,32.12
2023-05-20T11:55:34.016Z,31.89
2023-05-20T11:58:05.918Z,32.06
2023-05-20T12:00:46.800Z,31.68
2023-05-20T12:03:22.170Z,32.17
2023-05-20T12:05:53.253Z,31.95
2023-05-20T12:08:24.332Z,32.28
2023-05-20T12:10:54.736Z,31.84
2023-05-20T12:13:43.451Z,32.06
2023-05-20T12:16:14.080Z,32.02
2023-05-20T12:18:44.572Z,31.78
2023-05-20T12:21:14.980Z,31.89
2023-05-20T12:23:45.379Z,31.58
2023-05-20T12:26:15.664Z,31.99
2023-05-20T12:28:46.171Z,32.09
2023-05-20T12:31:16.594Z,31.95
2023-05-20T12:33:47.240Z,31.96
2023-05-20T12:36:18.122Z,32.08
2023-05-20T12:38:48.655Z,31.91
2023-05-20T12:41:18.994Z,31.89
2023-05-20T12:43:49.465Z,32.57
2023-05-20T12:46:40.770Z,31.79
2023-05-20T12:49:11.234Z,32.04
2023-05-20T12:51:41.633Z,31.99
2023-05-20T12:54:12.094Z,32.15
2023-05-20T12:56:42.670Z,31.68
2023-05-20T12:59:13.165Z,32.06
2023-05-20T13:01:43.695Z,32.05
2023-05-20T13:04:14.147Z,31.72
2023-05-20T13:06:45.063Z,32.14
2023-05-20T13:09:15.453Z,31.99
2023-05-20T13:11:46.647Z,31.91
2023-05-20T13:14:17.547Z,32.44
2023-05-20T13:16:48.179Z,32.04
2023-05-20T13:19:18.751Z,32.18
2023-05-20T13:21:49.711Z,31.56
2023-05-20T13:24:20.410Z,31.99
2023-05-20T13:26:51.074Z,31.47
2023-05-20T13:29:21.501Z,32.13
2023-05-20T13:32:09.980Z,31.71
2023-05-20T13:34:40.503Z,32.10
2023-05-20T13:37:11.004Z,32.09
2023-05-20T13:39:41.549Z,31.93
2023-05-20T13:42:11.870Z,32.02
2023-05-20T13:44:42.335Z,32.10
2023-05-20T13:47:13.323Z,32.07
2023-05-20T13:49:43.965Z,32.56
2023-05-20T13:52:14.891Z,31.96
2023-05-20T13:54:48.194Z,31.97
2023-05-20T13:57:18.978Z,31.72
2023-05-20T13:59:49.363Z,31.73
2023-05-20T14:02:20.073Z,31.99
2023-05-20T14:04:50.548Z,31.66
2023-05-20T14:07:21.008Z,31.81
2023-05-20T14:09:51.443Z,32.30
2023-05-20T14:12:39.681Z,31.87
2023-05-20T14:15:10.642Z,32.10
2023-05-20T14:17:41.051Z,31.84
2023-05-20T14:20:12.196Z,31.63
2023-05-20T14:22:42.686Z,31.16
2023-05-20T14:25:13.105Z,31.66
2023-05-20T14:27:43.878Z,31.45
2023-05-20T14:30:32.890Z,31.55
2023-05-20T14:33:03.522Z,31.86
2023-05-20T14:35:34.041Z,31.60
2023-05-20T14:38:04.446Z,32.27
2023-05-20T14:40:35.136Z,31.96
2023-05-20T14:43:05.655Z,31.60
2023-05-20T14:45:36.011Z,32.01
2023-05-20T14:48:06.585Z,31.61
2023-05-20T14:50:37.360Z,31.68
2023-05-20T14:53:08.104Z,31.81
2023-05-20T14:55:38.540Z,31.66
2023-05-20T14:58:09.219Z,31.63
2023-05-20T15:00:39.721Z,31.86
2023-05-20T15:03:10.298Z,31.48
2023-05-20T15:05:40.808Z,31.55
2023-05-20T15:08:11.303Z,31.27
2023-05-20T15:10:41.714Z,31.12
2023-05-20T15:13:12.217Z,31.14
2023-05-20T15:15:42.884Z,31.22
2023-05-20T15:18:13.380Z,31.28
2023-05-20T15:20:44.130Z,31.46
2023-05-20T15:23:15.069Z,31.72
2023-05-20T15:25:45.580Z,31.80
2023-05-20T15:28:16.016Z,31.77
2023-05-20T15:30:46.391Z,31.76
2023-05-20T15:33:17.103Z,31.84
2023-05-20T15:35:47.891Z,31.36
2023-05-20T15:38:19.065Z,31.52
2023-05-20T15:40:51.765Z,31.41
2023-05-20T15:43:40.667Z,31.35
2023-05-20T15:46:11.132Z,31.32
2023-05-20T15:48:42.665Z,31.48
2023-05-20T15:51:13.965Z,31.52
2023-05-20T15:53:44.873Z,31.29
2023-05-20T15:56:15.880Z,31.21
2023-05-20T15:58:46.539Z,31.70
2023-05-20T16:01:17.228Z,31.59
2023-05-20T16:03:48.055Z,31.33
2023-05-20T16:06:18.703Z,30.92
2023-05-20T16:08:49.131Z,31.06
2023-05-20T16:11:19.497Z,31.36
2023-05-20T16:13:49.944Z,31.62
2023-05-20T16:16:20.644Z,30.92
2023-05-20T16:18:51.104Z,30.92
2023-05-20T16:21:22.793Z,31.42
2023-05-20T16:23:54.352Z,31.25
2023-05-20T16:26:24.823Z,31.25
2023-05-20T16:28:55.247Z,31.34
2023-05-20T16:31:25.679Z,31.35
2023-05-20T16:34:14.584Z,31.35
2023-05-20T16:36:46.642Z,31.85
2023-05-20T16:39:17.978Z,31.87
2023-05-20T16:41:48.338Z,31.49
2023-05-20T16:44:18.796Z,31.29
2023-05-20T16:46:49.810Z,31.41
2023-05-20T16:49:21.290Z,31.78
2023-05-20T16:51:53.728Z,31.35
2023-05-20T16:54:23.886Z,31.25
2023-05-20T16:56:54.525Z,31.23
2023-05-20T16:59:26.418Z,31.31
2023-05-20T17:01:56.607Z,30.69
2023-05-20T17:04:27.236Z,31.39
2023-05-20T17:06:58.384Z,31.66
2023-05-20T17:09:28.694Z,31.44
2023-05-20T17:11:59.712Z,31.22
2023-05-20T17:14:30.142Z,31.33
2023-05-20T17:17:00.907Z,30.81
2023-05-20T17:19:31.391Z,31.68
2023-05-20T17:22:01.923Z,31.27
2023-05-20T17:24:32.726Z,31.29
2023-05-20T17:27:04.967Z,31.22
2023-05-20T17:29:35.401Z,31.65
2023-05-20T17:32:05.989Z,31.36
2023-05-20T17:34:36.631Z,31.80
2023-05-20T17:37:07.387Z,31.54
2023-05-20T17:39:37.823Z,31.49
2023-05-20T17:42:08.312Z,31.18
2023-05-20T17:44:38.779Z,31.15
2023-05-20T17:47:09.388Z,31.23
2023-05-20T17:49:39.786Z,31.26
2023-05-20T17:52:10.333Z,31.39
2023-05-20T17:54:40.934Z,31.59
2023-05-20T17:57:11.461Z,31.29
2023-05-20T17:59:43.342Z,31.17
2023-05-20T18:02:14.356Z,31.42
2023-05-20T18:04:44.941Z,31.23
2023-05-20T18:07:15.957Z,31.52
2023-05-20T18:09:46.394Z,31.29
2023-05-20T18:12:17.120Z,31.33
2023-05-20T18:14:47.624Z,31.19
2023-05-20T18:17:18.257Z,31.31
2023-05-20T18:19:49.095Z,31.57
2023-05-20T18:22:19.527Z,31.55
2023-05-20T18:24:50.114Z,31.81
2023-05-20T18:27:20.760Z,31.51
2023-05-20T18:29:51.590Z,31.06
2023-05-20T18:32:23.779Z,31.20
2023-05-20T18:34:54.348Z,31.60
2023-05-20T18:37:43.176Z,31.34
2023-05-20T18:40:14.342Z,31.35
2023-05-20T18:42:44.742Z,30.86
2023-05-20T18:45:15.294Z,31.48
2023-05-20T18:47:45.801Z,31.35
2023-05-20T18:50:16.270Z,31.48
2023-05-20T18:52:46.742Z,31.66
2023-05-20T18:55:17.335Z,31.62
2023-05-20T18:57:48.211Z,31.50
2023-05-20T19:00:19.552Z,31.37
2023-05-20T19:02:50.077Z,31.46
2023-05-20T19:05:21.579Z,31.30
2023-05-20T19:07:52.077Z,31.18
2023-05-20T19:10:22.909Z,31.45
2023-05-20T19:12:53.287Z,31.42
2023-05-20T19:15:23.680Z,31.57
2023-05-20T19:17:54.683Z,31.50
2023-05-20T19:20:25.175Z,31.05
2023-05-20T19:22:55.466Z,30.94
2023-05-20T19:25:44.296Z,31.26
2023-05-20T19:28:14.817Z,31.23
2023-05-20T19:30:45.248Z,31.29
2023-05-20T19:33:15.706Z,31.38
2023-05-20T19:35:46.260Z,30.40
2023-05-20T19:38:17.044Z,29.34
2023-05-20T19:40:48.601Z,30.80
2023-05-20T19:43:19.325Z,30.88
2023-05-20T19:45:49.811Z,30.36
2023-05-20T19:48:22.077Z,31.23
2023-05-20T19:50:52.897Z,31.87
2023-05-20T19:53:23.320Z,31.76
2023-05-20T19:55:54.046Z,31.85
2023-05-20T19:58:25.431Z,32.00
2023-05-20T20:00:56.054Z,31.41
2023-05-20T20:03:26.641Z,30.82
2023-05-20T20:05:58.440Z,30.82
2023-05-20T20:08:28.822Z,29.37
2023-05-20T20:10:59.341Z,29.44
2023-05-20T20:13:29.714Z,29.74
2023-05-20T20:16:00.412Z,31.59
2023-05-20T20:18:31.062Z,31.52
2023-05-20T20:21:02.013Z,30.97
2023-05-20T20:23:32.405Z,31.35
2023-05-20T20:26:03.262Z,30.89
2023-05-20T20:28:33.672Z,31.25
2023-05-20T20:31:04.050Z,31.60
2023-05-20T20:33:34.822Z,29.78
2023-05-20T20:36:23.318Z,29.77
2023-05-20T20:38:53.884Z,30.24
2023-05-20T20:41:24.573Z,30.20
2023-05-20T20:43:55.079Z,30.63
2023-05-20T20:46:25.757Z,30.76
2023-05-20T20:48:56.461Z,31.56
2023-05-20T20:51:27.214Z,31.69
2023-05-20T20:53:57.747Z,30.47
2023-05-20T20:56:28.352Z,28.96
2023-05-20T20:58:59.037Z,29.80
2023-05-20T21:01:31.189Z,30.45
2023-05-20T21:04:02.582Z,30.37
2023-05-20T21:06:33.623Z,30.56
2023-05-20T21:09:04.097Z,31.28
2023-05-20T21:11:34.689Z,31.41
2023-05-20T21:14:05.370Z,31.47
2023-05-20T21:16:35.801Z,31.25
2023-05-20T21:19:07.584Z,31.44
2023-05-20T21:21:37.849Z,31.30
2023-05-20T21:24:08.779Z,31.05
2023-05-20T21:26:39.243Z,31.21
2023-05-20T21:29:11.458Z,31.38
2023-05-20T21:31:41.893Z,31.74
2023-05-20T21:34:12.296Z,31.88
2023-05-20T21:36:42.753Z,31.67
2023-05-20T21:39:13.130Z,31.43
2023-05-20T21:41:43.554Z,31.32
2023-05-20T21:44:14.234Z,31.36
2023-05-20T21:46:44.777Z,31.75
2023-05-20T21:49:15.267Z,31.52
2023-05-20T21:51:45.704Z,31.51
2023-05-20T21:54:16.114Z,31.26
2023-05-20T21:56:46.952Z,31.01
2023-05-20T21:59:17.395Z,31.13
2023-05-20T22:01:47.845Z,31.05
2023-05-20T22:04:20.391Z,31.14
2023-05-20T22:06:52.364Z,31.37
2023-05-20T22:09:22.771Z,31.28
2023-05-20T22:11:54.198Z,31.47
2023-05-20T22:14:25.113Z,31.26
2023-05-20T22:16:55.598Z,31.35
2023-05-20T22:19:26.211Z,30.53
2023-05-20T22:21:57.198Z,31.15
2023-05-20T22:24:27.655Z,31.72
2023-05-20T22:26:58.228Z,30.59
2023-05-20T22:29:28.969Z,31.14
2023-05-20T22:31:59.575Z,31.47
2023-05-20T22:34:30.394Z,31.06
2023-05-20T22:37:00.859Z,31.03
2023-05-20T22:39:31.418Z,30.99
2023-05-20T22:42:02.115Z,31.63
2023-05-20T22:44:32.721Z,30.94
2023-05-20T22:47:03.106Z,31.15
2023-05-20T22:49:34.225Z,31.33
2023-05-20T22:52:04.544Z,31.14
2023-05-20T22:54:35.217Z,31.33
2023-05-20T22:57:07.111Z,30.98
2023-05-20T22:59:38.112Z,30.95
2023-05-20T23:02:09.444Z,31.41
2023-05-20T23:04:40.354Z,31.11
2023-05-20T23:07:10.823Z,30.56
2023-05-20T23:09:41.357Z,30.73
2023-05-20T23:12:11.960Z,30.02
2023-05-20T23:14:42.450Z,30.65
2023-05-20T23:17:13.067Z,29.51
2023-05-20T23:19:44.068Z,30.91
2023-05-20T23:22:15.648Z,30.41
2023-05-20T23:24:46.100Z,29.73
2023-05-20T23:27:17.274Z,27.66
2023-05-20T23:29:47.932Z,29.37
2023-05-20T23:32:18.385Z,29.11
2023-05-20T23:34:48.880Z,29.49
2023-05-20T23:37:19.436Z,28.92
2023-05-20T23:39:50.408Z,28.87
2023-05-20T23:42:20.843Z,29.20
2023-05-20T23:44:51.224Z,29.69
2023-05-20T23:47:21.557Z,28.97
2023-05-20T23:49:52.182Z,30.42
2023-05-20T23:52:22.548Z,30.88
2023-05-20T23:54:53.801Z,30.09
2023-05-20T23:57:24.538Z,30.07
2023-05-20T23:59:55.021Z,30.86
